Time;durP1;ratioP1;P1;durP2;ratioP2;P2;SDS_P1;SDS_P2;PMS_P1;PMS_P2;Temp;Humidity;BMP_temperature;BMP_pressure;BME280_temperature;BME280_humidity;BME280_pressure;Samples;Min_cycle;Max_cycle;Signal;HPM_P1;HPM_P2
2024/04/26 00:01:24;;;;;;;;;;;;;;;9.64;nan;100645.97;5402850;26;19937;-87
2024/04/26 00:03:50;;;;;;;;;;;;;;;9.62;nan;100641.91;5404762;26;19929;-89
2024/04/26 00:06:15;;;;;;;;;;;;;;;9.59;nan;100645.91;5362998;26;20297;-89
2024/04/26 00:08:41;;;;;;;;;;;;;;;9.60;nan;100641.34;5400913;26;19929;-89
2024/04/26 00:11:06;;;;;;;;;;;;;;;9.61;nan;100640.31;5397474;26;19929;-89
2024/04/26 00:13:32;;;;;;;;;;;;;;;9.63;nan;100636.31;5391404;26;19929;-89
2024/04/26 00:16:01;;;;;;;;;;;;;;;9.64;nan;100640.63;5415312;26;19933;-89
2024/04/26 00:18:26;;;;;;;;;;;;;;;9.65;nan;100646.78;5401984;26;19963;-89
2024/04/26 00:20:51;;;;;;;;;;;;;;;9.65;nan;100642.22;5407769;26;20299;-88
2024/04/26 00:23:16;;;;;;;;;;;;;;;9.66;nan;100643.03;5410159;26;19935;-89
2024/04/26 00:25:42;;;;;;;;;;;;;;;9.64;nan;100631.78;5403370;26;19937;-88
2024/04/26 00:28:08;;;;;;;;;;;;;;;9.62;nan;100636.56;5411260;26;19929;-90
2024/04/26 00:30:33;;;;;;;;;;;;;;;9.59;nan;100635.19;5382858;26;20054;-88
2024/04/26 00:32:58;;;;;;;;;;;;;;;9.57;nan;100636.50;5404212;26;20559;-89
2024/04/26 00:35:23;;;;;;;;;;;;;;;9.56;nan;100640.22;5392307;26;20523;-89
2024/04/26 00:37:49;;;;;;;;;;;;;;;9.52;nan;100647.94;5396284;26;19943;-89
2024/04/26 00:40:14;;;;;;;;;;;;;;;9.51;nan;100645.47;5404018;26;19933;-89
2024/04/26 00:42:40;;;;;;;;;;;;;;;9.48;nan;100643.28;5413479;26;19929;-89
2024/04/26 00:45:05;;;;;;;;;;;;;;;9.43;nan;100649.38;5407527;26;19929;-89
2024/04/26 00:47:31;;;;;;;;;;;;;;;9.39;nan;100643.72;5415108;26;19944;-89
2024/04/26 00:49:56;;;;;;;;;;;;;;;9.36;nan;100640.72;5387692;26;19998;-89
2024/04/26 00:52:22;;;;;;;;;;;;;;;9.33;nan;100644.66;5399667;26;20387;-89
2024/04/26 00:54:49;;;;;;;;;;;;;;;9.31;nan;100635.25;5406656;26;20014;-89
2024/04/26 00:57:14;;;;;;;;;;;;;;;9.28;nan;100644.59;5398441;26;19937;-89
2024/04/26 00:59:39;;;;;;;;;;;;;;;9.25;nan;100644.25;5405797;26;19969;-89
2024/04/26 01:02:05;;;;;;;;;;;;;;;9.21;nan;100649.28;5407076;26;19937;-89
2024/04/26 01:04:30;;;;;;;;;;;;;;;9.14;nan;100645.94;5379226;26;19940;-88
2024/04/26 01:06:55;;;;;;;;;;;;;;;9.10;nan;100647.47;5395857;26;19929;-89
2024/04/26 01:09:21;;;;;;;;;;;;;;;9.07;nan;100655.97;5402745;26;19930;-89
2024/04/26 01:11:46;;;;;;;;;;;;;;;9.01;nan;100651.59;5395753;26;19929;-88
2024/04/26 01:14:12;;;;;;;;;;;;;;;8.95;nan;100649.88;5416670;26;20002;-89
2024/04/26 01:16:37;;;;;;;;;;;;;;;8.94;nan;100654.41;5415208;26;19936;-89
2024/04/26 01:19:03;;;;;;;;;;;;;;;8.93;nan;100657.31;5406900;26;19973;-89
2024/04/26 01:21:30;;;;;;;;;;;;;;;8.95;nan;100653.34;5403878;26;19998;-89
2024/04/26 01:23:55;;;;;;;;;;;;;;;8.96;nan;100662.19;5397944;26;19936;-88
2024/04/26 01:26:20;;;;;;;;;;;;;;;8.92;nan;100653.84;5407022;26;20608;-88
2024/04/26 01:28:45;;;;;;;;;;;;;;;8.90;nan;100663.94;5412971;26;19997;-89
2024/04/26 01:31:10;;;;;;;;;;;;;;;8.87;nan;100661.75;5408477;26;19992;-89
2024/04/26 01:33:36;;;;;;;;;;;;;;;8.84;nan;100662.25;5408788;26;19930;-89
2024/04/26 01:36:01;;;;;;;;;;;;;;;8.81;nan;100665.41;5397493;26;19937;-89
2024/04/26 01:38:26;;;;;;;;;;;;;;;8.78;nan;100664.00;5409908;26;19941;-89
2024/04/26 01:40:51;;;;;;;;;;;;;;;8.75;nan;100667.13;5406591;26;20007;-88
2024/04/26 01:43:17;;;;;;;;;;;;;;;8.76;nan;100660.75;5406579;26;19940;-89
2024/04/26 01:45:42;;;;;;;;;;;;;;;8.74;nan;100660.19;5413638;26;19929;-89
2024/04/26 01:48:07;;;;;;;;;;;;;;;8.69;nan;100662.75;5410472;26;20268;-89
2024/04/26 01:50:32;;;;;;;;;;;;;;;8.63;nan;100670.91;5416131;26;19929;-89
2024/04/26 01:52:57;;;;;;;;;;;;;;;8.60;nan;100666.84;5403270;26;20377;-88
2024/04/26 01:55:23;;;;;;;;;;;;;;;8.57;nan;100672.66;5404934;26;20288;-88
2024/04/26 01:57:50;;;;;;;;;;;;;;;8.53;nan;100663.50;5400114;26;19945;-88
2024/04/26 02:00:15;;;;;;;;;;;;;;;8.49;nan;100670.38;5408383;26;19929;-88
2024/04/26 02:02:40;;;;;;;;;;;;;;;8.45;nan;100674.56;5408749;26;19949;-88
2024/04/26 02:05:06;;;;;;;;;;;;;;;8.41;nan;100678.72;5400264;26;20765;-88
2024/04/26 02:07:31;;;;;;;;;;;;;;;8.36;nan;100671.44;5407836;26;19928;-89
2024/04/26 02:09:56;;;;;;;;;;;;;;;8.32;nan;100683.59;5402648;26;20291;-88
2024/04/26 02:12:22;;;;;;;;;;;;;;;8.27;nan;100677.34;5407409;26;19929;-89
2024/04/26 02:14:47;;;;;;;;;;;;;;;8.24;nan;100683.94;5414433;26;19945;-88
2024/04/26 02:17:12;;;;;;;;;;;;;;;8.21;nan;100680.94;5414276;26;19933;-88
2024/04/26 02:19:38;;;;;;;;;;;;;;;8.16;nan;100693.13;5403200;26;19930;-88
2024/04/26 02:22:03;;;;;;;;;;;;;;;8.10;nan;100686.06;5406978;26;20765;-88
2024/04/26 02:24:29;;;;;;;;;;;;;;;8.03;nan;100687.22;5389864;26;19979;-88
2024/04/26 02:26:54;;;;;;;;;;;;;;;8.04;nan;100694.16;5377824;26;19940;-88
2024/04/26 02:29:20;;;;;;;;;;;;;;;8.01;nan;100687.44;5393451;26;19936;-88
2024/04/26 02:31:45;;;;;;;;;;;;;;;7.98;nan;100695.91;5412095;26;20347;-88
2024/04/26 02:34:10;;;;;;;;;;;;;;;7.97;nan;100696.16;5411434;26;19936;-88
2024/04/26 02:36:35;;;;;;;;;;;;;;;7.94;nan;100700.09;5403910;26;20007;-88
2024/04/26 02:39:00;;;;;;;;;;;;;;;7.89;nan;100703.44;5400740;26;20391;-88
2024/04/26 02:41:25;;;;;;;;;;;;;;;7.84;nan;100695.31;5399877;26;19929;-88
2024/04/26 02:43:51;;;;;;;;;;;;;;;7.81;nan;100692.31;5402737;26;19971;-88
2024/04/26 02:46:16;;;;;;;;;;;;;;;7.80;nan;100690.69;5414376;26;19929;-89
2024/04/26 02:48:41;;;;;;;;;;;;;;;7.80;nan;100688.03;5392922;26;19936;-88
2024/04/26 02:51:13;;;;;;;;;;;;;;;7.80;nan;100691.50;5412029;26;20394;-88
2024/04/26 02:53:38;;;;;;;;;;;;;;;7.80;nan;100690.69;5404669;26;20273;-89
2024/04/26 02:56:04;;;;;;;;;;;;;;;7.81;nan;100685.13;5413611;26;19935;-88
2024/04/26 02:58:29;;;;;;;;;;;;;;;7.83;nan;100690.22;5400413;26;19929;-88
2024/04/26 03:00:54;;;;;;;;;;;;;;;7.85;nan;100690.81;5411980;26;19933;-89
2024/04/26 03:03:19;;;;;;;;;;;;;;;7.86;nan;100697.75;5384261;26;19937;-88
2024/04/26 03:05:45;;;;;;;;;;;;;;;7.86;nan;100690.56;5403206;26;19937;-88
2024/04/26 03:08:10;;;;;;;;;;;;;;;7.89;nan;100694.63;5391717;26;19941;-88
2024/04/26 03:10:37;;;;;;;;;;;;;;;7.88;nan;100690.34;5385203;26;20337;-88
2024/04/26 03:13:04;;;;;;;;;;;;;;;7.91;nan;100697.09;5404634;26;20283;-89
2024/04/26 03:15:29;;;;;;;;;;;;;;;7.96;nan;100695.34;5409773;26;19940;-88
2024/04/26 03:17:54;;;;;;;;;;;;;;;7.97;nan;100694.28;5401459;26;20396;-88
2024/04/26 03:20:20;;;;;;;;;;;;;;;7.98;nan;100695.09;5414296;26;19935;-88
2024/04/26 03:22:46;;;;;;;;;;;;;;;8.00;nan;100701.84;5396468;26;20010;-88
2024/04/26 03:25:11;;;;;;;;;;;;;;;8.02;nan;100713.06;5393439;26;19937;-89
2024/04/26 03:27:36;;;;;;;;;;;;;;;8.04;nan;100707.50;5413716;26;19985;-88
2024/04/26 03:30:02;;;;;;;;;;;;;;;8.02;nan;100701.59;5413385;26;20215;-89
2024/04/26 03:32:33;;;;;;;;;;;;;;;8.02;nan;100701.59;5382425;26;20369;-89
2024/04/26 03:34:58;;;;;;;;;;;;;;;8.03;nan;100701.34;5400416;26;19979;-89
2024/04/26 03:37:24;;;;;;;;;;;;;;;8.03;nan;100697.88;5415019;26;19929;-89
2024/04/26 03:39:49;;;;;;;;;;;;;;;8.01;nan;100698.13;5402412;26;19937;-88
2024/04/26 03:42:14;;;;;;;;;;;;;;;8.03;nan;100693.34;5415309;26;19944;-88
2024/04/26 03:44:39;;;;;;;;;;;;;;;8.06;nan;100703.56;5414190;26;20384;-88
2024/04/26 03:47:05;;;;;;;;;;;;;;;8.07;nan;100699.03;5415752;26;19941;-89
2024/04/26 03:49:30;;;;;;;;;;;;;;;8.09;nan;100696.97;5414101;26;19935;-88
2024/04/26 03:51:55;;;;;;;;;;;;;;;8.08;nan;100706.84;5395520;26;20378;-88
2024/04/26 03:54:20;;;;;;;;;;;;;;;8.09;nan;100703.13;5407486;26;19929;-88
2024/04/26 03:56:45;;;;;;;;;;;;;;;8.09;nan;100702.31;5403960;26;19952;-89
2024/04/26 03:59:11;;;;;;;;;;;;;;;8.09;nan;100704.97;5413766;26;19933;-88
2024/04/26 04:01:36;;;;;;;;;;;;;;;8.10;nan;100698.59;5411776;26;20592;-88
2024/04/26 04:04:01;;;;;;;;;;;;;;;8.10;nan;100707.41;5414653;26;19929;-89
2024/04/26 04:06:27;;;;;;;;;;;;;;;8.14;nan;100700.56;5411960;26;20392;-88
2024/04/26 04:08:52;;;;;;;;;;;;;;;8.16;nan;100709.13;5408580;26;19936;-88
2024/04/26 04:11:17;;;;;;;;;;;;;;;8.17;nan;100699.28;5406933;26;19936;-88
2024/04/26 04:13:42;;;;;;;;;;;;;;;8.16;nan;100703.81;5402802;26;19929;-88
2024/04/26 04:16:07;;;;;;;;;;;;;;;8.16;nan;100698.47;5397873;26;19930;-88
2024/04/26 04:18:32;;;;;;;;;;;;;;;8.17;nan;100688.59;5399414;26;20409;-88
2024/04/26 04:20:58;;;;;;;;;;;;;;;8.18;nan;100696.38;5410950;26;19930;-89
2024/04/26 04:23:23;;;;;;;;;;;;;;;8.21;nan;100694.28;5409562;26;19936;-87
2024/04/26 04:25:49;;;;;;;;;;;;;;;8.22;nan;100695.91;5416199;26;19961;-89
2024/04/26 04:28:14;;;;;;;;;;;;;;;8.23;nan;100706.34;5417274;26;19929;-88
2024/04/26 04:30:39;;;;;;;;;;;;;;;8.25;nan;100708.78;5403632;26;19936;-88
2024/04/26 04:33:05;;;;;;;;;;;;;;;8.26;nan;100703.22;5417631;26;20376;-89
2024/04/26 04:35:31;;;;;;;;;;;;;;;8.27;nan;100704.84;5401423;26;19941;-87
2024/04/26 04:37:57;;;;;;;;;;;;;;;8.28;nan;100706.47;5366137;26;19930;-89
2024/04/26 04:40:22;;;;;;;;;;;;;;;8.30;nan;100700.91;5408679;26;19940;-89
2024/04/26 04:42:47;;;;;;;;;;;;;;;8.31;nan;100705.19;5404203;26;20022;-89
2024/04/26 04:45:12;;;;;;;;;;;;;;;8.30;nan;100704.38;5416044;26;19929;-88
2024/04/26 04:47:37;;;;;;;;;;;;;;;8.29;nan;100705.44;5413709;26;20024;-89
2024/04/26 04:50:03;;;;;;;;;;;;;;;8.29;nan;100715.28;5411607;26;20384;-88
2024/04/26 04:52:28;;;;;;;;;;;;;;;8.27;nan;100715.53;5413636;26;19928;-88
2024/04/26 04:54:53;;;;;;;;;;;;;;;8.26;nan;100716.56;5410274;26;19998;-87
2024/04/26 04:57:19;;;;;;;;;;;;;;;8.26;nan;100715.72;5417382;26;19955;-89
2024/04/26 04:59:44;;;;;;;;;;;;;;;8.27;nan;100717.38;5416872;26;19929;-89
2024/04/26 05:02:09;;;;;;;;;;;;;;;8.26;nan;100719.25;5416911;26;19929;-89
2024/04/26 05:04:35;;;;;;;;;;;;;;;8.27;nan;100720.06;5415718;26;19933;-88
2024/04/26 05:07:00;;;;;;;;;;;;;;;8.28;nan;100721.69;5417860;26;20425;-89
2024/04/26 05:09:25;;;;;;;;;;;;;;;8.31;nan;100724.69;5415440;26;19935;-89
2024/04/26 05:11:50;;;;;;;;;;;;;;;8.38;nan;100727.25;5398704;26;19929;-89
2024/04/26 05:14:15;;;;;;;;;;;;;;;8.44;nan;100721.81;5418114;26;20759;-88
2024/04/26 05:16:41;;;;;;;;;;;;;;;8.53;nan;100727.59;5416330;26;19928;-88
2024/04/26 05:19:06;;;;;;;;;;;;;;;8.60;nan;100733.59;5415292;26;19943;-89
2024/04/26 05:21:31;;;;;;;;;;;;;;;8.70;nan;100731.16;5412795;26;19935;-88
2024/04/26 05:23:56;;;;;;;;;;;;;;;8.79;nan;100744.94;5410576;26;19929;-88
2024/04/26 05:26:21;;;;;;;;;;;;;;;8.88;nan;100737.38;5413304;26;20483;-86
2024/04/26 05:28:47;;;;;;;;;;;;;;;8.96;nan;100734.31;5411653;26;19929;-87
2024/04/26 05:31:12;;;;;;;;;;;;;;;8.99;nan;100739.22;5384682;26;19936;-88
2024/04/26 05:33:38;;;;;;;;;;;;;;;9.07;nan;100739.63;5412649;26;19929;-87
2024/04/26 05:36:04;;;;;;;;;;;;;;;9.12;nan;100746.94;5414919;26;19937;-88
2024/04/26 05:38:29;;;;;;;;;;;;;;;9.19;nan;100733.44;5382888;26;19936;-88
2024/04/26 05:40:54;;;;;;;;;;;;;;;9.27;nan;100741.06;5404128;26;19936;-86
2024/04/26 05:43:19;;;;;;;;;;;;;;;9.35;nan;100744.19;5410741;26;20625;-88
2024/04/26 05:45:45;;;;;;;;;;;;;;;9.46;nan;100744.34;5383430;26;19938;-87
2024/04/26 05:48:10;;;;;;;;;;;;;;;9.53;nan;100743.16;5410718;26;19936;-87
2024/04/26 05:50:35;;;;;;;;;;;;;;;9.64;nan;100749.47;5411103;26;19932;-87
2024/04/26 05:53:00;;;;;;;;;;;;;;;9.74;nan;100747.00;5405964;26;19929;-88
2024/04/26 05:55:25;;;;;;;;;;;;;;;9.80;nan;100756.72;5411288;26;19929;-88
2024/04/26 05:57:51;;;;;;;;;;;;;;;9.84;nan;100751.69;5406846;26;19930;-87
2024/04/26 06:00:16;;;;;;;;;;;;;;;9.88;nan;100759.00;5405343;26;20368;-88
2024/04/26 06:02:43;;;;;;;;;;;;;;;9.94;nan;100755.34;5398972;26;19940;-87
2024/04/26 06:05:11;;;;;;;;;;;;;;;10.08;nan;100752.34;5413661;26;19937;-87
2024/04/26 06:07:37;;;;;;;;;;;;;;;10.20;nan;100753.06;5409174;26;19936;-87
2024/04/26 06:10:03;;;;;;;;;;;;;;;10.29;nan;100751.63;5405277;26;19929;-88
2024/04/26 06:12:29;;;;;;;;;;;;;;;10.42;nan;100758.50;5407321;26;19945;-87
2024/04/26 06:14:54;;;;;;;;;;;;;;;10.50;nan;100763.44;5410790;26;19936;-87
2024/04/26 06:17:19;;;;;;;;;;;;;;;10.59;nan;100754.75;5413274;26;20010;-87
2024/04/26 06:19:44;;;;;;;;;;;;;;;10.71;nan;100761.84;5409894;26;19940;-88
2024/04/26 06:22:09;;;;;;;;;;;;;;;10.82;nan;100758.22;5398131;26;19929;-87
2024/04/26 06:24:35;;;;;;;;;;;;;;;10.90;nan;100755.91;5411875;26;19937;-87
2024/04/26 06:27:00;;;;;;;;;;;;;;;10.97;nan;100765.66;5409701;26;19936;-87
2024/04/26 06:29:25;;;;;;;;;;;;;;;11.04;nan;100761.72;5414371;26;20503;-88
2024/04/26 06:31:52;;;;;;;;;;;;;;;11.14;nan;100769.88;5406235;26;19937;-87
2024/04/26 06:34:17;;;;;;;;;;;;;;;11.20;nan;100766.19;5409888;26;19944;-87
2024/04/26 06:36:43;;;;;;;;;;;;;;;11.29;nan;100771.09;5405994;26;19937;-87
2024/04/26 06:39:08;;;;;;;;;;;;;;;11.37;nan;100774.16;5382976;26;19929;-87
2024/04/26 06:41:33;;;;;;;;;;;;;;;11.44;nan;100766.69;5407130;26;19929;-88
2024/04/26 06:43:58;;;;;;;;;;;;;;;11.59;nan;100770.59;5397373;26;20404;-88
2024/04/26 06:46:23;;;;;;;;;;;;;;;11.69;nan;100766.16;5410984;26;19929;-88
2024/04/26 06:48:49;;;;;;;;;;;;;;;11.80;nan;100764.38;5405374;26;20170;-87
2024/04/26 06:51:14;;;;;;;;;;;;;;;11.90;nan;100759.09;5411050;26;20410;-88
2024/04/26 06:53:39;;;;;;;;;;;;;;;12.07;nan;100769.72;5406742;26;19935;-86
2024/04/26 06:56:04;;;;;;;;;;;;;;;12.21;nan;100770.91;5410181;26;20389;-88
2024/04/26 06:58:30;;;;;;;;;;;;;;;12.36;nan;100767.47;5398339;26;19941;-86
2024/04/26 07:00:55;;;;;;;;;;;;;;;12.49;nan;100771.59;5371509;26;19936;-87
2024/04/26 07:03:20;;;;;;;;;;;;;;;12.61;nan;100774.91;5410046;26;19940;-87
2024/04/26 07:05:46;;;;;;;;;;;;;;;12.76;nan;100769.59;5405376;26;19930;-88
2024/04/26 07:08:11;;;;;;;;;;;;;;;12.90;nan;100768.03;5409816;26;19997;-87
2024/04/26 07:10:38;;;;;;;;;;;;;;;13.04;nan;100765.69;5406629;26;20389;-88
2024/04/26 07:13:03;;;;;;;;;;;;;;;13.22;nan;100765.22;5407120;26;19943;-88
2024/04/26 07:15:28;;;;;;;;;;;;;;;13.36;nan;100768.22;5409213;26;19929;-88
2024/04/26 07:17:53;;;;;;;;;;;;;;;13.43;nan;100765.28;5394889;26;19931;-88
2024/04/26 07:20:19;;;;;;;;;;;;;;;13.53;nan;100771.50;5406647;26;19936;-88
2024/04/26 07:22:44;;;;;;;;;;;;;;;13.64;nan;100766.09;5404499;26;19929;-87
2024/04/26 07:25:09;;;;;;;;;;;;;;;13.73;nan;100764.50;5405292;26;20615;-88
2024/04/26 07:27:34;;;;;;;;;;;;;;;13.85;nan;100767.75;5405445;26;19929;-88
2024/04/26 07:29:59;;;;;;;;;;;;;;;13.98;nan;100769.88;5409312;26;19934;-87
2024/04/26 07:32:25;;;;;;;;;;;;;;;14.11;nan;100771.25;5407645;26;19928;-87
2024/04/26 07:34:50;;;;;;;;;;;;;;;14.23;nan;100768.28;5403082;26;19962;-87
2024/04/26 07:37:15;;;;;;;;;;;;;;;14.36;nan;100762.31;5381394;26;20603;-87
2024/04/26 07:39:40;;;;;;;;;;;;;;;14.42;nan;100763.94;5403033;26;19949;-88
2024/04/26 07:42:07;;;;;;;;;;;;;;;14.52;nan;100767.41;5406748;26;20409;-88
2024/04/26 07:44:32;;;;;;;;;;;;;;;14.57;nan;100769.31;5394505;26;19933;-88
2024/04/26 07:46:58;;;;;;;;;;;;;;;14.66;nan;100761.47;5399924;26;19941;-87
2024/04/26 07:49:23;;;;;;;;;;;;;;;14.76;nan;100764.94;5410269;26;19936;-87
2024/04/26 07:51:51;;;;;;;;;;;;;;;14.88;nan;100755.72;5409118;26;20100;-88
2024/04/26 07:54:17;;;;;;;;;;;;;;;14.99;nan;100763.50;5397800;26;20268;-87
2024/04/26 07:56:42;;;;;;;;;;;;;;;15.12;nan;100748.59;5389842;26;19944;-88
2024/04/26 07:59:07;;;;;;;;;;;;;;;15.34;nan;100754.41;5407066;26;20432;-88
2024/04/26 08:01:32;;;;;;;;;;;;;;;15.48;nan;100756.50;5402183;26;19929;-88
2024/04/26 08:03:57;;;;;;;;;;;;;;;15.63;nan;100759.13;5400073;26;19945;-87
2024/04/26 08:06:22;;;;;;;;;;;;;;;15.77;nan;100756.56;5410746;26;20105;-88
2024/04/26 08:08:48;;;;;;;;;;;;;;;15.90;nan;100759.44;5404179;26;19936;-87
2024/04/26 08:11:14;;;;;;;;;;;;;;;15.93;nan;100756.16;5407026;26;19936;-88
2024/04/26 08:13:39;;;;;;;;;;;;;;;16.01;nan;100755.56;5406271;26;19929;-87
2024/04/26 08:16:05;;;;;;;;;;;;;;;16.06;nan;100749.31;5406717;26;19930;-87
2024/04/26 08:18:30;;;;;;;;;;;;;;;16.13;nan;100752.47;5403071;26;19929;-86
2024/04/26 08:20:55;;;;;;;;;;;;;;;16.12;nan;100744.66;5402448;26;19936;-87
2024/04/26 08:23:20;;;;;;;;;;;;;;;16.20;nan;100742.16;5412336;26;20300;-88
2024/04/26 08:25:45;;;;;;;;;;;;;;;16.35;nan;100738.47;5389399;26;19999;-87
2024/04/26 08:28:11;;;;;;;;;;;;;;;16.48;nan;100754.00;5402429;26;19998;-88
2024/04/26 08:30:36;;;;;;;;;;;;;;;16.57;nan;100746.88;5373337;26;20022;-86
2024/04/26 08:33:01;;;;;;;;;;;;;;;16.62;nan;100741.41;5395049;26;19929;-88
2024/04/26 08:35:27;;;;;;;;;;;;;;;16.74;nan;100746.47;5393179;26;19941;-88
2024/04/26 08:37:52;;;;;;;;;;;;;;;16.88;nan;100746.56;5411100;26;19929;-88
2024/04/26 08:40:17;;;;;;;;;;;;;;;16.91;nan;100740.56;5372989;26;20021;-88
2024/04/26 08:42:45;;;;;;;;;;;;;;;16.90;nan;100749.78;5396138;26;19947;-88
2024/04/26 08:45:11;;;;;;;;;;;;;;;16.97;nan;100755.63;5401870;26;19929;-88
2024/04/26 08:47:37;;;;;;;;;;;;;;;17.03;nan;100748.25;5399698;26;19944;-87
2024/04/26 08:50:03;;;;;;;;;;;;;;;17.11;nan;100745.72;5396252;26;19930;-88
2024/04/26 08:52:30;;;;;;;;;;;;;;;17.28;nan;100736.28;5388893;26;19935;-88
2024/04/26 08:54:55;;;;;;;;;;;;;;;17.42;nan;100745.28;5405971;26;19941;-88
2024/04/26 08:57:21;;;;;;;;;;;;;;;17.50;nan;100742.72;5398961;26;19936;-87
2024/04/26 08:59:46;;;;;;;;;;;;;;;17.55;nan;100741.81;5397200;26;19936;-88
2024/04/26 09:02:11;;;;;;;;;;;;;;;17.63;nan;100737.66;5393096;26;19928;-88
2024/04/26 09:04:37;;;;;;;;;;;;;;;17.62;nan;100741.47;5408985;26;19940;-87
2024/04/26 09:07:03;;;;;;;;;;;;;;;17.71;nan;100742.41;5405242;26;19929;-86
2024/04/26 09:09:28;;;;;;;;;;;;;;;17.87;nan;100745.69;5408225;26;19936;-86
2024/04/26 09:11:57;;;;;;;;;;;;;;;17.86;nan;100733.22;5400538;26;19941;-87
2024/04/26 09:14:23;;;;;;;;;;;;;;;17.89;nan;100730.72;5383200;26;19937;-88
2024/04/26 09:16:48;;;;;;;;;;;;;;;17.93;nan;100733.66;5391427;26;20010;-87
2024/04/26 09:19:13;;;;;;;;;;;;;;;17.99;nan;100727.06;5394687;26;19956;-87
2024/04/26 09:21:39;;;;;;;;;;;;;;;18.03;nan;100723.44;5401525;26;19929;-87
2024/04/26 09:24:04;;;;;;;;;;;;;;;18.14;nan;100739.53;5405219;26;19930;-88
2024/04/26 09:26:30;;;;;;;;;;;;;;;18.10;nan;100736.59;5382438;26;19936;-87
2024/04/26 09:28:55;;;;;;;;;;;;;;;18.14;nan;100739.53;5391410;26;20257;-88
2024/04/26 09:31:21;;;;;;;;;;;;;;;18.15;nan;100733.00;5407454;26;19929;-87
2024/04/26 09:33:51;;;;;;;;;;;;;;;18.16;nan;100730.00;5376555;26;20276;-88
2024/04/26 09:36:18;;;;;;;;;;;;;;;18.18;nan;100735.94;5408283;26;19941;-88
2024/04/26 09:38:43;;;;;;;;;;;;;;;18.25;nan;100735.53;5405344;26;19935;-87
2024/04/26 09:41:09;;;;;;;;;;;;;;;18.29;nan;100739.25;5402444;26;19929;-88
2024/04/26 09:43:35;;;;;;;;;;;;;;;18.25;nan;100735.53;5401749;26;19937;-87
2024/04/26 09:46:01;;;;;;;;;;;;;;;18.21;nan;100734.53;5409617;26;19930;-89
2024/04/26 09:48:27;;;;;;;;;;;;;;;18.18;nan;100735.94;5401372;26;19937;-88
2024/04/26 09:50:55;;;;;;;;;;;;;;;18.31;nan;100724.31;5399156;26;19997;-87
2024/04/26 09:53:22;;;;;;;;;;;;;;;18.61;nan;100730.22;5390553;26;19998;-90
2024/04/26 09:55:47;;;;;;;;;;;;;;;18.68;nan;100731.47;5408273;26;19930;-88
2024/04/26 09:58:12;;;;;;;;;;;;;;;18.70;nan;100723.03;5407238;26;19936;-87
2024/04/26 10:00:38;;;;;;;;;;;;;;;18.75;nan;100722.91;5391793;26;19936;-86
2024/04/26 10:03:05;;;;;;;;;;;;;;;18.88;nan;100722.09;5400486;26;20492;-87
2024/04/26 10:05:32;;;;;;;;;;;;;;;18.82;nan;100722.50;5400146;26;19941;-88
2024/04/26 10:08:01;;;;;;;;;;;;;;;18.64;nan;100716.88;5390319;26;20007;-86
2024/04/26 10:10:33;;;;;;;;;;;;;;;18.60;nan;100717.75;5400880;26;19929;-88
2024/04/26 10:13:04;;;;;;;;;;;;;;;18.63;nan;100719.91;5398106;26;19937;-88
2024/04/26 10:15:30;;;;;;;;;;;;;;;18.69;nan;100716.78;5401667;26;19937;-88
2024/04/26 10:17:55;;;;;;;;;;;;;;;18.77;nan;100715.25;5392303;26;19936;-89
2024/04/26 10:20:21;;;;;;;;;;;;;;;18.67;nan;100716.28;5410941;26;19929;-86
2024/04/26 10:23:05;;;;;;;;;;;;;;;18.74;nan;100710.44;5395575;26;19937;-87
2024/04/26 10:25:31;;;;;;;;;;;;;;;18.97;nan;100716.75;5400276;26;19937;-87
2024/04/26 10:28:07;;;;;;;;;;;;;;;19.05;nan;100715.22;5399795;26;19936;-87
2024/04/26 10:30:32;;;;;;;;;;;;;;;18.91;nan;100721.50;5394166;26;19939;-87
2024/04/26 10:32:59;;;;;;;;;;;;;;;18.87;nan;100722.41;5393755;26;20385;-87
2024/04/26 10:35:24;;;;;;;;;;;;;;;18.70;nan;100723.03;5392610;26;19994;-89
2024/04/26 10:37:58;;;;;;;;;;;;;;;18.51;nan;100720.38;5394604;26;20392;-88
2024/04/26 10:40:24;;;;;;;;;;;;;;;18.37;nan;100720.38;5392779;26;19929;-88
2024/04/26 10:42:49;;;;;;;;;;;;;;;18.34;nan;100710.13;5394277;26;20413;-88
2024/04/26 10:45:14;;;;;;;;;;;;;;;18.42;nan;100714.84;5394850;26;19929;-90
2024/04/26 10:47:40;;;;;;;;;;;;;;;18.55;nan;100723.28;5410584;26;20021;-88
2024/04/26 10:50:05;;;;;;;;;;;;;;;18.66;nan;100709.22;5403043;26;19936;-88
2024/04/26 10:52:31;;;;;;;;;;;;;;;18.84;nan;100704.78;5393389;26;19938;-88
2024/04/26 10:54:56;;;;;;;;;;;;;;;19.02;nan;100712.00;5400160;26;19942;-88
2024/04/26 10:57:21;;;;;;;;;;;;;;;19.12;nan;100715.59;5402891;26;20025;-86
2024/04/26 10:59:56;;;;;;;;;;;;;;;19.25;nan;100712.84;5400396;26;19929;-87
2024/04/26 11:02:21;;;;;;;;;;;;;;;19.38;nan;100708.47;5399023;26;19929;-87
2024/04/26 11:04:47;;;;;;;;;;;;;;;19.55;nan;100702.41;5397059;26;19936;-87
2024/04/26 11:07:17;;;;;;;;;;;;;;;19.54;nan;100707.03;5412861;26;19944;-88
2024/04/26 11:09:48;;;;;;;;;;;;;;;19.40;nan;100717.13;5388913;26;19958;-87
2024/04/26 11:12:14;;;;;;;;;;;;;;;19.23;nan;100725.16;5389951;26;20370;-87
2024/04/26 11:14:39;;;;;;;;;;;;;;;19.12;nan;100721.03;5399227;26;19936;-86
2024/04/26 11:17:07;;;;;;;;;;;;;;;19.10;nan;100724.06;5399985;26;19929;-87
2024/04/26 11:19:33;;;;;;;;;;;;;;;18.98;nan;100715.63;5388766;26;19973;-86
2024/04/26 11:21:59;;;;;;;;;;;;;;;18.99;nan;100718.03;5396215;26;19928;-86
2024/04/26 11:24:24;;;;;;;;;;;;;;;19.20;nan;100717.59;5396258;26;19933;-87
2024/04/26 11:26:50;;;;;;;;;;;;;;;19.32;nan;100715.13;5396904;26;19933;-86
2024/04/26 11:29:15;;;;;;;;;;;;;;;19.27;nan;100718.78;5389043;26;19929;-86
2024/04/26 11:31:40;;;;;;;;;;;;;;;19.14;nan;100719.63;5393867;26;19975;-86
2024/04/26 11:34:08;;;;;;;;;;;;;;;19.13;nan;100712.59;5395996;26;19936;-86
2024/04/26 11:36:33;;;;;;;;;;;;;;;19.15;nan;100718.50;5393918;26;20014;-87
2024/04/26 11:38:59;;;;;;;;;;;;;;;19.26;nan;100717.19;5397196;26;19930;-87
2024/04/26 11:41:25;;;;;;;;;;;;;;;19.31;nan;100708.09;5395329;26;20137;-86
2024/04/26 11:43:50;;;;;;;;;;;;;;;19.16;nan;100714.69;5388663;26;20325;-87
2024/04/26 11:46:15;;;;;;;;;;;;;;;19.02;nan;100731.00;5400465;26;19953;-87
2024/04/26 11:48:41;;;;;;;;;;;;;;;18.90;nan;100716.38;5392475;26;19929;-86
2024/04/26 11:51:06;;;;;;;;;;;;;;;18.80;nan;100728.22;5391632;26;19936;-86
2024/04/26 11:53:31;;;;;;;;;;;;;;;18.71;nan;100728.16;5409061;26;19936;-87
2024/04/26 11:55:58;;;;;;;;;;;;;;;18.65;nan;100717.69;5388804;26;19965;-87
2024/04/26 11:58:23;;;;;;;;;;;;;;;18.60;nan;100726.69;5389541;26;19936;-86
2024/04/26 12:00:48;;;;;;;;;;;;;;;18.61;nan;100722.88;5392293;26;19938;-87
2024/04/26 12:03:14;;;;;;;;;;;;;;;18.61;nan;100722.88;5390445;26;19930;-86
2024/04/26 12:05:41;;;;;;;;;;;;;;;18.63;nan;100731.56;5399476;26;20713;-87
2024/04/26 12:08:06;;;;;;;;;;;;;;;18.64;nan;100726.94;5411455;26;19995;-88
2024/04/26 12:10:31;;;;;;;;;;;;;;;18.75;nan;100727.53;5401580;26;19929;-87
2024/04/26 12:12:57;;;;;;;;;;;;;;;19.03;nan;100718.25;5390651;26;19936;-89
2024/04/26 12:15:22;;;;;;;;;;;;;;;19.07;nan;100723.88;5385705;26;19938;-86
2024/04/26 12:17:47;;;;;;;;;;;;;;;19.11;nan;100724.88;5402147;26;19941;-87
2024/04/26 12:20:13;;;;;;;;;;;;;;;19.21;nan;100730.88;5394682;26;20261;-87
2024/04/26 12:22:38;;;;;;;;;;;;;;;19.23;nan;100725.16;5400003;26;19929;-87
2024/04/26 12:25:04;;;;;;;;;;;;;;;19.18;nan;100727.94;5388742;26;19941;-86
2024/04/26 12:27:29;;;;;;;;;;;;;;;19.20;nan;100733.88;5399823;26;19941;-85
2024/04/26 12:29:55;;;;;;;;;;;;;;;19.27;nan;100726.13;5395782;26;19930;-86
2024/04/26 12:32:21;;;;;;;;;;;;;;;19.51;nan;100718.50;5391802;26;19936;-86
2024/04/26 12:34:48;;;;;;;;;;;;;;;19.70;nan;100714.81;5401451;26;19953;-88
2024/04/26 12:37:14;;;;;;;;;;;;;;;19.84;nan;100723.72;5395346;26;19929;-87
2024/04/26 12:39:43;;;;;;;;;;;;;;;19.95;nan;100714.19;5412671;26;19936;-86
2024/04/26 12:42:08;;;;;;;;;;;;;;;19.95;nan;100713.38;5391385;26;19980;-87
2024/04/26 12:44:34;;;;;;;;;;;;;;;19.82;nan;100715.06;5390211;26;19942;-86
2024/04/26 12:46:59;;;;;;;;;;;;;;;19.69;nan;100715.94;5397561;26;19930;-86
2024/04/26 12:49:24;;;;;;;;;;;;;;;19.66;nan;100719.25;5409044;26;20418;-86
2024/04/26 12:51:50;;;;;;;;;;;;;;;19.71;nan;100717.22;5390317;26;19941;-88
2024/04/26 12:54:15;;;;;;;;;;;;;;;19.78;nan;100716.81;5400566;26;19929;-87